Time;durP1;ratioP1;P1;durP2;ratioP2;P2;SDS_P1;SDS_P2;PMS_P1;PMS_P2;Temp;Humidity;BMP_temperature;BMP_pressure;BME280_temperature;BME280_humidity;BME280_pressure;Samples;Min_cycle;Max_cycle;Signal;HPM_P1;HPM_P2
2021/03/07 00:00:55;;;;;;;15.47;10.83;;;;;;;-3.79;72.57;101474.16;2087838;28;20059;-75
2021/03/07 00:01:55;;;;;;;17.00;11.73;;;;;;;-3.75;72.76;101478.63;2088995;28;20083;-75
2021/03/07 00:02:55;;;;;;;16.83;11.27;;;;;;;-3.75;72.25;101474.38;2081735;28;20483;-76
2021/03/07 00:03:56;;;;;;;16.33;11.53;;;;;;;-3.78;72.30;101463.16;2081573;28;20021;-77
2021/03/07 00:04:56;;;;;;;21.03;12.17;;;;;;;-3.81;72.17;101474.09;2081434;28;20025;-77
2021/03/07 00:05:56;;;;;;;20.40;11.13;;;;;;;-3.78;72.39;101469.16;2081523;28;20514;-78
2021/03/07 00:06:57;;;;;;;22.93;12.47;;;;;;;-3.74;72.47;101472.72;2081542;28;20475;-77
2021/03/07 00:07:57;;;;;;;19.43;12.10;;;;;;;-3.72;72.05;101468.56;2081501;28;20026;-77
2021/03/07 00:08:57;;;;;;;16.00;11.43;;;;;;;-3.70;72.85;101466.09;2081594;28;20084;-76
2021/03/07 00:09:58;;;;;;;15.83;11.83;;;;;;;-3.75;72.73;101469.28;2081164;28;20017;-77
2021/03/07 00:10:58;;;;;;;19.70;12.50;;;;;;;-3.74;72.76;101465.09;2080910;28;20056;-77
2021/03/07 00:11:58;;;;;;;18.40;11.87;;;;;;;-3.77;72.69;101470.88;2080797;28;20100;-77
2021/03/07 00:12:59;;;;;;;15.67;11.30;;;;;;;-3.79;72.81;101469.97;2081512;28;20036;-78
2021/03/07 00:14:05;;;;;;;19.30;12.83;;;;;;;-3.79;72.42;101467.41;2082266;28;20072;-79
2021/03/07 00:15:11;;;;;;;17.70;12.07;;;;;;;-3.81;72.34;101463.00;2081322;28;20068;-76
2021/03/07 00:16:12;;;;;;;19.30;12.82;;;;;;;-3.88;73.29;101466.97;2081422;28;20025;-76
2021/03/07 00:17:15;;;;;;;17.73;12.40;;;;;;;-3.92;73.32;101465.91;2080754;28;20105;-76
2021/03/07 00:18:15;;;;;;;20.52;13.98;;;;;;;-3.94;73.22;101462.44;2081747;28;20462;-72
2021/03/07 00:19:15;;;;;;;18.00;12.33;;;;;;;-3.95;73.02;101458.13;2081687;28;20033;-75
2021/03/07 00:20:19;;;;;;;19.67;11.80;;;;;;;-3.98;73.53;101462.22;2081540;28;20032;-77
2021/03/07 00:21:22;;;;;;;16.00;11.73;;;;;;;-4.00;73.42;101467.22;2081884;28;20032;-75
2021/03/07 00:22:22;;;;;;;18.73;13.13;;;;;;;-4.02;73.42;101462.84;2081820;28;20029;-72
2021/03/07 00:23:22;;;;;;;18.10;12.33;;;;;;;-4.08;73.57;101458.31;2081730;28;20060;-73
2021/03/07 00:24:23;;;;;;;16.57;12.13;;;;;;;-4.10;73.41;101460.78;2081401;28;20026;-73
2021/03/07 00:25:23;;;;;;;19.43;13.00;;;;;;;-4.11;73.58;101465.78;2080953;28;20025;-72
2021/03/07 00:26:24;;;;;;;17.92;12.50;;;;;;;-4.14;73.43;101463.13;2080710;28;20021;-72
2021/03/07 00:27:24;;;;;;;18.73;13.13;;;;;;;-4.18;73.80;101457.00;2088997;28;20588;-71
2021/03/07 00:28:24;;;;;;;18.33;12.20;;;;;;;-4.16;74.48;101457.94;2089034;28;20434;-75
2021/03/07 00:29:26;;;;;;;24.47;13.40;;;;;;;-4.12;74.52;101459.84;2081413;28;20039;-75
2021/03/07 00:30:26;;;;;;;19.95;13.73;;;;;;;-4.18;74.67;101458.66;2081085;28;20029;-74
2021/03/07 00:31:26;;;;;;;21.03;13.07;;;;;;;-4.17;75.11;101453.66;2080652;28;20134;-75
2021/03/07 00:32:27;;;;;;;23.30;13.73;;;;;;;-4.22;75.18;101452.53;2080982;28;20442;-73
2021/03/07 00:33:27;;;;;;;19.60;13.77;;;;;;;-4.24;74.90;101456.66;2080000;28;20622;-72
2021/03/07 00:34:28;;;;;;;20.65;13.80;;;;;;;-4.26;75.02;101458.28;2080281;28;20286;-71
2021/03/07 00:35:28;;;;;;;20.93;13.60;;;;;;;-4.20;75.40;101458.59;2080746;28;20475;-72
2021/03/07 00:36:28;;;;;;;19.00;13.67;;;;;;;-4.22;75.42;101462.72;2080690;28;20026;-74
2021/03/07 00:37:29;;;;;;;19.70;13.20;;;;;;;-4.25;75.51;101454.91;2080430;28;20025;-73
2021/03/07 00:38:29;;;;;;;18.73;13.30;;;;;;;-4.26;75.22;101460.84;2062428;28;20463;-77
2021/03/07 00:39:33;;;;;;;22.70;15.17;;;;;;;-4.29;75.38;101453.91;2072755;28;20526;-72
2021/03/07 00:40:35;;;;;;;21.30;14.27;;;;;;;-4.14;75.34;101463.97;2072860;28;20369;-72
2021/03/07 00:41:36;;;;;;;24.88;15.02;;;;;;;-4.26;75.79;101455.75;2072280;28;20038;-72
2021/03/07 00:42:43;;;;;;;20.80;13.73;;;;;;;-4.30;75.91;101453.81;2072549;28;20041;-72
2021/03/07 00:43:45;;;;;;;22.45;14.85;;;;;;;-4.28;76.55;101457.34;2072970;28;20341;-74
2021/03/07 00:44:45;;;;;;;20.75;14.02;;;;;;;-4.28;76.53;101458.19;2080352;28;20193;-73
2021/03/07 00:45:48;;;;;;;23.23;15.10;;;;;;;-4.31;76.95;101460.56;2080494;28;20551;-72
2021/03/07 00:46:59;;;;;;;21.00;14.32;;;;;;;-4.33;77.29;101451.13;2073049;28;20026;-73
2021/03/07 00:48:04;;;;;;;25.58;15.13;;;;;;;-4.36;77.07;101458.63;2073012;28;20022;-73
2021/03/07 00:49:11;;;;;;;24.58;14.63;;;;;;;-4.29;77.51;101458.97;2073225;28;20057;-73
2021/03/07 00:50:21;;;;;;;22.65;14.63;;;;;;;-4.31;77.45;101454.63;2072716;28;20042;-73
2021/03/07 00:51:22;;;;;;;23.88;15.23;;;;;;;-4.27;77.72;101461.63;2073068;28;20025;-73
2021/03/07 00:52:24;;;;;;;19.87;13.87;;;;;;;-4.33;77.42;101446.91;2073285;28;20037;-73
2021/03/07 00:53:28;;;;;;;24.00;15.43;;;;;;;-4.31;77.59;101452.06;2073069;28;20471;-73
2021/03/07 00:54:31;;;;;;;18.85;14.40;;;;;;;-4.37;77.78;101450.09;2080522;28;20060;-72
2021/03/07 00:55:34;;;;;;;20.05;14.27;;;;;;;-4.40;77.97;101445.72;2084364;28;20032;-73
2021/03/07 00:56:36;;;;;;;20.60;14.18;;;;;;;-4.38;77.48;101441.59;2073095;28;20029;-73
2021/03/07 00:57:44;;;;;;;21.05;14.68;;;;;;;-4.42;77.59;101451.53;2073061;28;20098;-73
2021/03/07 00:58:49;;;;;;;22.92;14.45;;;;;;;-4.45;78.04;101444.59;2088646;28;20071;-73
2021/03/07 00:59:52;;;;;;;21.85;15.00;;;;;;;-4.46;78.17;101442.00;2087436;28;20029;-73
2021/03/07 01:00:52;;;;;;;23.35;15.02;;;;;;;-4.32;77.91;101437.59;2088787;28;20462;-72
2021/03/07 01:01:55;;;;;;;22.13;14.15;;;;;;;-4.36;78.01;101436.56;2088677;28;20028;-73
2021/03/07 01:02:58;;;;;;;22.92;15.15;;;;;;;-4.48;78.28;101441.94;2080646;28;20044;-73
2021/03/07 01:04:03;;;;;;;21.67;14.25;;;;;;;-4.39;78.73;101436.41;2080817;28;20364;-73
2021/03/07 01:05:23;;;;;;;20.52;14.05;;;;;;;-4.39;78.07;101432.22;2081126;28;20029;-73
2021/03/07 01:06:23;;;;;;;22.52;14.55;;;;;;;-4.52;78.56;101429.81;2079899;28;20025;-74
2021/03/07 01:07:24;;;;;;;22.80;14.60;;;;;;;-4.41;78.15;101425.31;2081220;28;20487;-74
2021/03/07 01:08:24;;;;;;;22.13;14.80;;;;;;;-4.45;78.28;101421.69;2081017;28;20436;-75
2021/03/07 01:09:27;;;;;;;20.50;13.47;;;;;;;-4.49;78.09;101424.91;2081106;28;20029;-74
2021/03/07 01:10:37;;;;;;;22.40;14.15;;;;;;;-4.50;78.43;101422.25;2088273;28;20832;-74
2021/03/07 01:11:37;;;;;;;20.45;13.43;;;;;;;-4.56;78.83;101420.31;2087658;28;20025;-73
2021/03/07 01:12:39;;;;;;;19.50;12.73;;;;;;;-4.54;78.32;101421.22;2080994;28;20059;-73
2021/03/07 01:15:12;;;;;;;20.52;12.55;;;;;;;-4.56;78.74;101412.66;2080708;28;20032;-73
2021/03/07 01:16:12;;;;;;;18.10;12.05;;;;;;;-4.54;78.33;101413.59;2081160;28;20472;-72
2021/03/07 01:17:23;;;;;;;15.13;11.20;;;;;;;-4.51;78.17;101410.38;2081004;28;20034;-72
2021/03/07 01:18:23;;;;;;;15.88;11.27;;;;;;;-4.42;77.59;101409.13;2081131;28;20112;-72
2021/03/07 01:19:34;;;;;;;17.23;10.47;;;;;;;-4.39;77.28;101405.88;2080908;28;20033;-72
2021/03/07 01:20:39;;;;;;;17.08;11.23;;;;;;;-4.34;77.17;101404.44;2080735;28;20035;-72
2021/03/07 01:21:42;;;;;;;18.70;9.68;;;;;;;-4.18;75.97;101408.63;2081029;28;20029;-72
2021/03/07 01:22:45;;;;;;;12.95;9.25;;;;;;;-4.20;75.89;101401.69;2081033;28;20480;-72
2021/03/07 01:23:46;;;;;;;13.98;9.50;;;;;;;-4.24;75.83;101403.22;2081049;28;20021;-71
2021/03/07 01:24:46;;;;;;;15.73;9.70;;;;;;;-3.90;74.16;101399.78;2080348;28;20036;-72
2021/03/07 01:25:52;;;;;;;14.93;10.00;;;;;;;-4.07;74.87;101402.38;2080578;28;20057;-70
2021/03/07 01:26:52;;;;;;;35.20;11.02;;;;;;;-3.97;74.62;101395.19;2081645;28;20032;-70
2021/03/07 01:28:03;;;;;;;15.83;10.43;;;;;;;-3.94;74.81;101390.22;2081374;28;20109;-71
2021/03/07 01:29:04;;;;;;;15.65;10.18;;;;;;;-3.99;74.77;101390.00;2081147;28;20025;-71
2021/03/07 01:30:12;;;;;;;15.32;10.85;;;;;;;-4.01;74.65;101390.75;2081030;28;20033;-71
2021/03/07 01:31:15;;;;;;;14.68;10.15;;;;;;;-3.99;74.79;101394.25;2081034;28;20025;-70
2021/03/07 01:32:26;;;;;;;15.85;9.80;;;;;;;-3.92;73.85;101388.63;2081081;28;20029;-71
2021/03/07 01:33:43;;;;;;;17.40;10.00;;;;;;;-4.03;74.40;101390.69;2081164;28;20220;-70
2021/03/07 01:34:52;;;;;;;15.10;10.85;;;;;;;-4.05;75.67;101387.19;2081128;28;20395;-73
2021/03/07 01:36:03;;;;;;;12.20;8.98;;;;;;;-4.16;74.28;101381.53;2081019;28;20037;-72
2021/03/07 01:37:08;;;;;;;16.35;10.00;;;;;;;-4.17;74.78;101386.56;2081255;28;20089;-72
2021/03/07 01:38:14;;;;;;;13.45;9.40;;;;;;;-4.23;74.73;101382.94;2081194;28;20291;-71
2021/03/07 01:39:18;;;;;;;12.10;9.02;;;;;;;-4.31;74.63;101380.81;2081198;28;20300;-73
2021/03/07 01:40:33;;;;;;;14.18;9.60;;;;;;;-4.37;75.25;101381.38;2080818;28;20025;-73
2021/03/07 01:41:39;;;;;;;13.90;9.45;;;;;;;-4.45;75.15;101375.88;2080973;28;20048;-71
2021/03/07 01:43:03;;;;;;;16.05;10.27;;;;;;;-4.47;76.27;101372.41;2080373;28;20113;-71
2021/03/07 01:44:09;;;;;;;17.60;10.45;;;;;;;-4.46;77.19;101376.72;2066664;28;20165;-72
2021/03/07 01:45:19;;;;;;;17.42;11.10;;;;;;;-4.40;77.84;101368.47;2081071;28;20048;-72
2021/03/07 01:46:20;;;;;;;16.23;11.82;;;;;;;-4.43;77.93;101371.75;2080930;28;20025;-73
2021/03/07 01:47:40;;;;;;;17.15;12.45;;;;;;;-4.40;77.70;101373.56;2080951;28;20048;-74
2021/03/07 01:48:43;;;;;;;19.67;12.63;;;;;;;-4.33;77.90;101368.00;2081062;28;20052;-72
2021/03/07 01:49:47;;;;;;;18.70;12.77;;;;;;;-4.37;77.89;101368.66;2060372;28;20029;-73
2021/03/07 01:50:50;;;;;;;19.42;13.15;;;;;;;-4.38;78.07;101365.25;2088139;28;20037;-72
2021/03/07 01:51:54;;;;;;;18.30;12.75;;;;;;;-4.44;78.35;101372.56;2080102;28;20068;-72
2021/03/07 01:52:55;;;;;;;19.83;13.00;;;;;;;-4.48;78.31;101370.66;2080459;28;20025;-73
2021/03/07 01:53:55;;;;;;;16.77;12.43;;;;;;;-4.45;78.94;101365.72;2080922;28;20036;-73
2021/03/07 01:55:42;;;;;;;20.47;13.20;;;;;;;-4.54;79.49;101361.06;2080982;28;20510;-73
2021/03/07 01:56:47;;;;;;;19.52;12.77;;;;;;;-4.61;80.05;101363.22;2079817;28;20120;-72
2021/03/07 01:57:54;;;;;;;19.33;12.35;;;;;;;-4.66;79.75;101362.97;2082039;28;20033;-73
2021/03/07 01:58:59;;;;;;;18.75;12.45;;;;;;;-4.70;79.43;101361.94;2082503;28;20118;-73
2021/03/07 02:00:01;;;;;;;20.65;13.68;;;;;;;-4.75;79.59;101352.34;2082418;28;20108;-72
2021/03/07 02:01:09;;;;;;;18.63;12.90;;;;;;;-4.84;79.69;101355.28;2081791;28;20025;-73
2021/03/07 02:02:12;;;;;;;19.75;13.25;;;;;;;-4.92;80.01;101362.53;2074666;28;20032;-72
2021/03/07 02:03:16;;;;;;;19.13;13.25;;;;;;;-4.94;80.49;101358.13;2082056;28;20100;-73
2021/03/07 02:04:22;;;;;;;19.75;12.60;;;;;;;-4.98;80.73;101356.25;2090159;28;20032;-74
2021/03/07 02:05:49;;;;;;;18.98;13.07;;;;;;;-4.98;80.66;101357.13;2089421;28;20029;-74
2021/03/07 02:06:52;;;;;;;17.95;11.60;;;;;;;-5.00;80.74;101348.56;2082137;28;20368;-74
2021/03/07 02:07:59;;;;;;;18.58;12.55;;;;;;;-5.06;80.53;101351.66;2082285;28;20025;-74
2021/03/07 02:08:59;;;;;;;19.10;12.32;;;;;;;-5.06;80.59;101346.56;2082422;28;20028;-75
2021/03/07 02:10:01;;;;;;;22.40;13.40;;;;;;;-5.10;80.77;101344.66;2070199;28;20507;-72
2021/03/07 02:11:01;;;;;;;18.55;12.18;;;;;;;-5.11;81.29;101345.44;2086073;23;20859;-58
2021/03/07 02:12:02;;;;;;;17.00;12.40;;;;;;;-5.12;81.66;101343.69;2057261;28;20094;-58
2021/03/07 02:13:08;;;;;;;20.63;13.07;;;;;;;-5.06;82.09;101340.59;2057259;28;20367;-57
2021/03/07 02:14:09;;;;;;;19.40;12.50;;;;;;;-5.13;82.06;101341.94;2057323;28;20062;-57
2021/03/07 02:15:11;;;;;;;17.83;12.25;;;;;;;-5.14;82.41;101336.78;2056679;28;20022;-57
2021/03/07 02:16:19;;;;;;;20.15;12.82;;;;;;;-5.13;82.37;101336.84;2056852;28;20042;-58
2021/03/07 02:17:20;;;;;;;17.05;12.43;;;;;;;-5.13;82.32;101330.91;2057170;28;20034;-57
2021/03/07 02:18:21;;;;;;;18.15;12.63;;;;;;;-5.12;82.03;101327.56;2057292;28;20113;-57
2021/03/07 02:19:28;;;;;;;17.75;12.65;;;;;;;-5.12;81.85;101332.66;2057275;28;20030;-57
2021/03/07 02:20:32;;;;;;;21.95;12.48;;;;;;;-5.09;81.81;101328.59;2056939;28;20468;-58
2021/03/07 02:21:36;;;;;;;17.92;12.10;;;;;;;-5.16;81.34;101331.63;2057188;28;20121;-57
2021/03/07 02:22:42;;;;;;;19.38;12.73;;;;;;;-5.21;81.70;101322.88;2057457;28;20049;-57
2021/03/07 02:24:05;;;;;;;17.08;12.07;;;;;;;-5.29;81.70;101319.06;2056448;28;20030;-57
2021/03/07 02:25:09;;;;;;;21.25;12.07;;;;;;;-5.33;81.69;101311.28;2053480;28;20120;-57
2021/03/07 02:26:09;;;;;;;17.52;12.25;;;;;;;-5.36;81.64;101318.75;2057192;28;20732;-58
2021/03/07 02:27:09;;;;;;;18.47;12.30;;;;;;;-5.31;82.12;101309.69;2057173;28;20031;-57
2021/03/07 02:28:10;;;;;;;19.80;13.37;;;;;;;-5.32;82.22;101310.47;2057250;28;20019;-57
2021/03/07 02:29:12;;;;;;;18.10;12.50;;;;;;;-5.29;82.70;101304.72;2057462;28;20022;-58
2021/03/07 02:30:14;;;;;;;19.70;13.00;;;;;;;-5.26;82.88;101304.00;2056675;28;20019;-57
2021/03/07 02:31:18;;;;;;;20.50;13.52;;;;;;;-5.19;83.53;101306.03;2057431;28;20084;-57
2021/03/07 02:32:22;;;;;;;16.85;12.60;;;;;;;-5.18;83.75;101307.78;2057148;28;20427;-57
2021/03/07 02:33:34;;;;;;;21.27;13.55;;;;;;;-5.17;83.95;101309.53;2057324;28;20031;-58
2021/03/07 02:34:41;;;;;;;18.50;12.93;;;;;;;-5.17;83.73;101309.53;2057240;28;20041;-58
2021/03/07 02:35:51;;;;;;;20.33;12.98;;;;;;;-5.21;83.50;101311.06;2057125;28;20073;-58
2021/03/07 02:36:55;;;;;;;21.30;13.35;;;;;;;-5.22;82.92;101310.97;2057300;28;20134;-58
2021/03/07 02:37:58;;;;;;;19.10;13.25;;;;;;;-5.22;83.20;101305.88;2057125;28;20151;-58
2021/03/07 02:39:01;;;;;;;21.42;12.82;;;;;;;-5.29;83.19;101306.34;2057193;28;20109;-57
2021/03/07 02:40:04;;;;;;;21.15;13.60;;;;;;;-5.31;83.26;101309.69;2056593;28;20019;-57
2021/03/07 02:41:07;;;;;;;17.58;12.85;;;;;;;-5.35;83.49;101310.34;2057159;28;20026;-57
2021/03/07 02:42:23;;;;;;;19.17;11.95;;;;;;;-5.34;83.82;101306.97;2057061;28;20038;-58
2021/03/07 02:43:25;;;;;;;19.70;13.15;;;;;;;-5.29;84.17;101304.72;2056725;28;20241;-58
2021/03/07 02:44:29;;;;;;;18.40;13.15;;;;;;;-5.31;84.23;101304.59;2056610;28;20030;-57
2021/03/07 02:45:30;;;;;;;17.95;11.98;;;;;;;-5.32;84.00;101300.31;2056429;28;20058;-57
2021/03/07 02:46:33;;;;;;;19.90;12.45;;;;;;;-5.34;84.45;101301.03;2056551;28;20113;-57
2021/03/07 02:47:36;;;;;;;19.02;13.48;;;;;;;-5.29;84.60;101304.72;2057206;28;20594;-58
2021/03/07 02:48:37;;;;;;;20.95;13.80;;;;;;;-5.33;84.86;101300.25;2057100;28;20518;-58
2021/03/07 02:49:38;;;;;;;19.33;13.52;;;;;;;-5.37;85.31;101301.75;2056871;28;20034;-58
2021/03/07 02:50:42;;;;;;;19.95;14.27;;;;;;;-5.39;85.35;101299.94;2056761;28;20027;-58
2021/03/07 02:51:44;;;;;;;19.85;13.77;;;;;;;-5.38;85.62;101302.56;2057073;28;20398;-57
2021/03/07 02:52:53;;;;;;;20.95;12.77;;;;;;;-5.46;85.65;101296.19;2057020;28;20445;-58
2021/03/07 02:53:57;;;;;;;18.05;12.65;;;;;;;-5.47;85.91;101297.84;2056595;28;20502;-58
2021/03/07 02:55:00;;;;;;;22.95;14.05;;;;;;;-5.51;86.23;101292.53;2056977;28;20023;-58
2021/03/07 02:56:05;;;;;;;18.65;12.07;;;;;;;-5.50;86.12;101284.13;2049150;29;20023;-57
2021/03/07 02:57:06;;;;;;;17.23;11.98;;;;;;;-5.49;86.25;101288.41;2049061;29;20019;-58
2021/03/07 02:58:14;;;;;;;19.08;13.02;;;;;;;-5.55;86.08;101280.47;2049172;29;20506;-58
2021/03/07 02:59:16;;;;;;;20.98;13.15;;;;;;;-5.56;86.36;101293.97;2049225;29;20082;-58
2021/03/07 03:00:18;;;;;;;18.58;12.48;;;;;;;-5.57;86.79;101284.59;2048781;28;20547;-58
2021/03/07 03:01:18;;;;;;;;;;;;;;;-5.57;86.68;101292.22;2049406;29;20023;-57
2021/03/07 03:02:22;;;;;;;19.60;12.18;;;;;;;-5.66;86.05;101287.50;2051909;28;19916;-57
2021/03/07 03:03:27;;;;;;;17.70;12.77;;;;;;;-5.68;86.23;101287.44;2056884;28;20147;-58
2021/03/07 03:04:29;;;;;;;18.42;13.50;;;;;;;-5.72;86.50;101288.06;2057228;28;20492;-58
2021/03/07 03:05:31;;;;;;;21.48;13.13;;;;;;;-5.74;86.63;101287.13;2057031;28;20046;-57
2021/03/07 03:06:33;;;;;;;18.95;13.40;;;;;;;-5.72;86.55;101288.06;2057237;28;20018;-58
2021/03/07 03:07:34;;;;;;;;;;;;;;;-5.73;86.55;101281.22;2057311;28;20019;-57
2021/03/07 03:08:35;;;;;;;20.73;12.70;;;;;;;-5.68;86.70;101276.41;2057249;28;20290;-58
2021/03/07 03:09:36;;;;;;;19.20;12.45;;;;;;;-5.67;86.81;101280.69;2056880;28;20448;-58
2021/03/07 03:10:37;;;;;;;19.58;13.10;;;;;;;-5.69;86.79;101282.28;2056794;28;20038;-58
2021/03/07 03:11:41;;;;;;;19.10;12.43;;;;;;;-5.71;86.87;101282.19;2056849;28;20035;-58
2021/03/07 03:12:44;;;;;;;16.60;12.27;;;;;;;-5.74;87.12;101278.59;2057214;28;20019;-58
2021/03/07 03:13:46;;;;;;;21.40;13.30;;;;;;;-5.70;87.09;101276.31;2057065;28;20081;-57
2021/03/07 03:14:47;;;;;;;19.60;13.00;;;;;;;-5.70;86.95;101276.31;2057234;28;20019;-57
2021/03/07 03:15:48;;;;;;;18.37;12.97;;;;;;;-5.73;86.98;101276.13;2064307;28;20022;-58
2021/03/07 03:16:52;;;;;;;20.63;13.05;;;;;;;-5.74;86.53;101279.50;2064392;28;20360;-58
2021/03/07 03:17:53;;;;;;;19.15;13.18;;;;;;;-5.79;86.66;101275.81;2056881;28;20035;-57
2021/03/07 03:18:56;;;;;;;18.70;12.98;;;;;;;-5.81;86.92;101272.31;2056580;28;20022;-57
2021/03/07 03:19:57;;;;;;;19.20;12.70;;;;;;;-5.83;87.31;101268.84;2055950;28;20041;-57
2021/03/07 03:21:00;;;;;;;20.17;12.63;;;;;;;-5.85;87.08;101273.81;2056330;28;20023;-58
2021/03/07 03:22:02;;;;;;;18.73;12.73;;;;;;;-5.83;87.31;101273.94;2056195;28;20395;-58
2021/03/07 03:23:02;;;;;;;19.95;12.80;;;;;;;-5.85;87.33;101276.38;2056869;28;20504;-58
2021/03/07 03:24:03;;;;;;;17.80;12.40;;;;;;;-5.87;86.85;101274.53;2056845;28;20147;-58
2021/03/07 03:25:05;;;;;;;16.75;12.27;;;;;;;-5.91;86.52;101276.03;2057024;28;20032;-58
2021/03/07 03:26:08;;;;;;;18.30;11.98;;;;;;;-5.91;86.27;101280.22;2056547;28;20029;-57
2021/03/07 03:27:11;;;;;;;21.27;11.88;;;;;;;-5.94;86.14;101269.16;2056919;28;20218;-57
2021/03/07 03:28:12;;;;;;;18.33;12.68;;;;;;;-5.98;86.38;101264.69;2056715;28;20034;-58
2021/03/07 03:29:12;;;;;;;18.27;12.07;;;;;;;-6.00;86.51;101271.38;2056892;28;20467;-58
2021/03/07 03:30:17;;;;;;;17.02;12.10;;;;;;;-6.02;86.37;101267.88;2056287;28;20054;-57
2021/03/07 03:31:19;;;;;;;16.92;11.40;;;;;;;-6.05;86.14;101262.66;2056988;28;20384;-58
2021/03/07 03:32:20;;;;;;;15.82;11.32;;;;;;;-6.04;86.13;101266.94;2056750;28;20038;-57
2021/03/07 03:33:22;;;;;;;16.43;11.23;;;;;;;-5.98;86.28;101261.28;2056953;28;20018;-57
2021/03/07 03:34:23;;;;;;;21.25;12.45;;;;;;;-5.90;86.42;101261.69;2056979;28;20030;-58
2021/03/07 03:35:23;;;;;;;19.23;12.17;;;;;;;-5.88;86.05;101266.06;2057141;28;20464;-58
2021/03/07 03:36:23;;;;;;;17.53;11.77;;;;;;;-5.94;86.40;101261.53;2057029;28;20274;-58
2021/03/07 03:37:24;;;;;;;14.17;10.23;;;;;;;-5.83;86.29;101266.31;2057196;28;20035;-57
2021/03/07 03:38:35;;;;;;;17.08;12.10;;;;;;;-5.72;85.52;101274.50;2056908;28;20026;-58
2021/03/07 03:39:38;;;;;;;15.38;11.18;;;;;;;-5.88;85.60;101266.06;2056956;28;20559;-58
2021/03/07 03:40:39;;;;;;;16.70;11.10;;;;;;;-5.88;85.83;101266.06;2055909;28;20031;-57
2021/03/07 03:41:40;;;;;;;14.32;9.95;;;;;;;-5.70;85.12;101263.63;2056253;28;20045;-58
2021/03/07 03:42:42;;;;;;;;;;;;;;;-5.53;84.62;101263.63;2057113;28;20034;-57
2021/03/07 03:43:46;;;;;;;14.35;10.05;;;;;;;-5.41;84.03;101261.72;2056854;28;20334;-57
2021/03/07 03:44:47;;;;;;;12.30;8.32;;;;;;;-5.14;82.67;101263.94;2056574;28;20042;-57
2021/03/07 03:45:50;;;;;;;12.77;8.27;;;;;;;-4.92;80.90;101262.47;2056930;28;20097;-57
2021/03/07 03:46:53;;;;;;;12.80;8.32;;;;;;;-4.59;79.46;101252.22;2056504;28;20039;-57
2021/03/07 03:48:01;;;;;;;11.40;7.93;;;;;;;-4.59;78.73;101249.69;2056772;28;20483;-58
2021/03/07 03:49:13;;;;;;;11.45;7.25;;;;;;;-4.40;77.73;101242.13;2056604;28;20153;-57
2021/03/07 03:50:14;;;;;;;11.10;7.00;;;;;;;-4.32;77.46;101247.59;2055590;28;20034;-57
2021/03/07 03:51:19;;;;;;;9.55;7.18;;;;;;;-4.19;76.56;101241.41;2055941;28;20031;-57
2021/03/07 03:52:23;;;;;;;13.63;7.70;;;;;;;-4.27;76.70;101242.72;2056004;28;20134;-57
2021/03/07 03:53:23;;;;;;;11.10;7.40;;;;;;;-3.89;75.64;101245.25;2055877;28;20031;-57
2021/03/07 03:54:27;;;;;;;12.18;7.93;;;;;;;-4.02;75.30;101238.75;2056619;28;20483;-57
2021/03/07 03:55:30;;;;;;;9.45;6.78;;;;;;;-4.04;75.55;101246.31;2056498;28;20375;-58
2021/03/07 03:56:31;;;;;;;9.82;7.07;;;;;;;-3.86;74.66;101240.31;2056662;28;20031;-57
2021/03/07 03:57:33;;;;;;;9.43;6.43;;;;;;;-3.79;74.29;101238.13;2056424;28;20476;-58
2021/03/07 03:58:41;;;;;;;8.48;6.60;;;;;;;-3.72;73.83;101239.25;2056588;28;20030;-57
2021/03/07 03:59:43;;;;;;;9.52;6.22;;;;;;;-3.76;73.68;101240.78;2056257;28;20502;-58
2021/03/07 04:00:43;;;;;;;11.55;6.55;;;;;;;-3.54;72.66;101239.19;2056463;28;20491;-57
2021/03/07 04:01:46;;;;;;;9.07;6.53;;;;;;;-3.48;72.31;101234.38;2054729;28;20114;-57
2021/03/07 04:02:47;;;;;;;8.30;6.60;;;;;;;-3.46;71.65;101237.84;2055980;28;20023;-57
2021/03/07 04:03:49;;;;;;;9.20;6.72;;;;;;;-3.60;72.45;101236.41;2055812;28;20486;-57
2021/03/07 04:04:52;;;;;;;10.38;6.95;;;;;;;-3.65;72.48;101237.84;2056462;28;20031;-58
2021/03/07 04:05:52;;;;;;;11.30;6.63;;;;;;;-3.68;72.76;101242.84;2056177;28;20077;-58
2021/03/07 04:06:54;;;;;;;9.15;6.57;;;;;;;-3.85;73.13;101237.81;2056364;28;20470;-57
2021/03/07 04:07:54;;;;;;;;;;;;;;;-3.96;73.73;101239.00;2056554;28;20494;-57
2021/03/07 04:08:55;;;;;;;9.77;6.20;;;;;;;-3.97;73.80;101234.75;2056380;28;19920;-57
2021/03/07 04:09:55;;;;;;;10.18;8.00;;;;;;;-4.16;75.37;101238.97;2071029;28;20022;-58
2021/03/07 04:10:57;;;;;;;14.83;8.83;;;;;;;-4.28;77.03;101235.88;2071665;28;20049;-57
2021/03/07 04:11:57;;;;;;;;;;;;;;;-4.42;77.03;101233.53;2055892;28;20786;-58
2021/03/07 04:13:01;;;;;;;13.57;9.15;;;;;;;-4.52;78.45;101246.63;2055724;28;19987;-58
2021/03/07 04:14:01;;;;;;;12.57;8.95;;;;;;;-4.63;79.09;101242.69;2055999;28;20027;-57
2021/03/07 04:15:03;;;;;;;14.85;10.70;;;;;;;-4.69;80.26;101238.16;2056544;28;20426;-58
2021/03/07 04:16:04;;;;;;;14.85;10.20;;;;;;;-4.71;80.81;101242.34;2056586;28;20194;-58
2021/03/07 04:17:05;;;;;;;14.45;9.88;;;;;;;-4.82;81.01;101241.78;2056845;28;20052;-58
2021/03/07 04:18:08;;;;;;;14.88;10.90;;;;;;;-4.92;81.15;101244.66;2056650;28;20058;-57
2021/03/07 04:19:08;;;;;;;15.75;10.32;;;;;;;-5.03;81.44;101245.00;2055874;28;20414;-58
2021/03/07 04:20:10;;;;;;;18.00;10.97;;;;;;;-5.11;82.10;101248.84;2055923;28;20034;-58
2021/03/07 04:21:11;;;;;;;15.80;10.70;;;;;;;-5.17;82.44;101248.53;2056740;28;20027;-58
2021/03/07 04:22:13;;;;;;;20.02;11.07;;;;;;;-5.22;82.48;101250.84;2056544;28;20150;-57
2021/03/07 04:23:14;;;;;;;15.38;11.02;;;;;;;-5.25;83.02;101254.91;2056652;28;20446;-58
2021/03/07 04:24:14;;;;;;;14.93;11.23;;;;;;;-5.34;83.12;101251.06;2056539;28;20085;-57
2021/03/07 04:25:15;;;;;;;12.90;10.27;;;;;;;-5.42;83.25;101246.41;2056679;28;20053;-58
2021/03/07 04:26:16;;;;;;;15.50;10.27;;;;;;;-5.47;83.52;101253.78;2055907;28;20030;-57
2021/03/07 04:27:17;;;;;;;14.20;10.38;;;;;;;-5.52;83.78;101247.59;2056046;28;20595;-57
2021/03/07 04:28:17;;;;;;;;;;;;;;;-5.59;83.73;101250.59;2057007;28;20054;-58
2021/03/07 04:29:18;;;;;;;17.00;10.30;;;;;;;-5.60;84.31;101248.84;2056648;28;20366;-57
2021/03/07 04:30:20;;;;;;;16.58;10.57;;;;;;;-5.57;84.84;101251.56;2055949;28;20106;-57
2021/03/07 04:31:20;;;;;;;14.02;10.10;;;;;;;-5.59;84.80;101255.69;2056607;28;20507;-58
2021/03/07 04:32:21;;;;;;;15.10;10.87;;;;;;;-5.56;85.07;101248.25;2056419;28;20095;-57
2021/03/07 04:33:22;;;;;;;16.02;10.43;;;;;;;-5.58;85.19;101245.59;2056593;28;20329;-57
2021/03/07 04:34:23;;;;;;;16.02;9.65;;;;;;;-5.57;84.93;101251.56;2056428;28;20500;-58
2021/03/07 04:35:24;;;;;;;14.50;10.13;;;;;;;-5.55;85.02;101250.84;2056606;28;20027;-61
2021/03/07 04:36:24;;;;;;;14.43;9.52;;;;;;;-5.62;84.76;101252.19;2056418;28;20042;-57
2021/03/07 04:37:25;;;;;;;15.50;10.93;;;;;;;-5.67;84.92;101240.03;2056528;28;20471;-57
2021/03/07 04:38:26;;;;;;;12.23;9.23;;;;;;;-5.67;85.39;101246.00;2056335;28;20023;-58
2021/03/07 04:39:26;;;;;;;14.80;10.40;;;;;;;-5.67;85.56;101246.00;2056479;28;20023;-58
2021/03/07 04:40:27;;;;;;;15.82;9.88;;;;;;;-5.71;85.83;101241.53;2055320;28;20035;-58
2021/03/07 04:41:27;;;;;;;13.93;10.07;;;;;;;-5.69;85.63;101246.72;2055763;28;20109;-57
2021/03/07 04:42:28;;;;;;;13.33;9.57;;;;;;;-5.75;85.70;101242.19;2056585;28;20027;-57
2021/03/07 04:43:46;;;;;;;15.05;10.07;;;;;;;-5.79;85.42;101247.88;2056409;28;20042;-57
2021/03/07 04:44:46;;;;;;;12.98;9.75;;;;;;;-5.80;85.72;101247.03;2056412;28;20034;-57
2021/03/07 04:45:47;;;;;;;13.43;9.20;;;;;;;-5.76;85.89;101249.72;2056570;28;20361;-57
2021/03/07 04:46:47;;;;;;;12.60;8.33;;;;;;;-5.68;85.53;101249.34;2056434;28;20045;-57
2021/03/07 04:47:47;;;;;;;12.17;9.17;;;;;;;-5.63;85.16;101252.97;2056558;28;20023;-58
2021/03/07 04:48:48;;;;;;;13.30;8.37;;;;;;;-5.64;84.92;101251.25;2056628;28;20031;-58
2021/03/07 04:49:48;;;;;;;10.73;8.23;;;;;;;-5.67;84.82;101251.09;2055779;28;20504;-57
2021/03/07 04:50:49;;;;;;;14.03;9.23;;;;;;;-5.72;85.04;101247.41;2056552;28;20061;-58